Terminal Aerodrome Forecast
Issued by NWS

Home | Current Version | Previous Version | Graphics & Text | Print | Product List | Glossary On
Versions: 1 2 3 4 5 6 7 8 9 10 11 12 13 14 15 16 17 18 19 20 21 22 23
000
FTUS43 KGRB 241000 AAA
TAFATW
TAF AMD
KATW 241020Z 2410/2506 30007KT 1SM -RA BR OVC004
      TEMPO 2410/2411 1/2SM -RA FG
     FM241200 31005KT 1 1/2SM -RA BR OVC005
     FM241400 31009KT 2SM -RA BR OVC009
     FM241800 31012G20KT 4SM -RA OVC009
     FM242100 31012G20KT 2SM -RASN OVC009
     FM242300 31012G16KT 1/2SM SN OVC007=

USA.gov is the U.S. government's official web portal to all federal, state and local government web resources and services.